Time;durP1;ratioP1;P1;durP2;ratioP2;P2;SDS_P1;SDS_P2;PMS_P1;PMS_P2;Temp;Humidity;BMP_temperature;BMP_pressure;BME280_temperature;BME280_humidity;BME280_pressure;Samples;Min_cycle;Max_cycle;Signal;HPM_P1;HPM_P2
2023/11/20 00:01:11;;;;;;;13.53;4.30;;;;;;;10.61;100.00;100812.13;5131355;27;20040;-35
2023/11/20 00:03:38;;;;;;;17.57;4.07;;;;;;;10.61;100.00;100822.13;5130976;27;20296;-35
2023/11/20 00:06:04;;;;;;;16.70;4.65;;;;;;;10.58;100.00;100816.09;5130628;27;20265;-35
2023/11/20 00:08:30;;;;;;;17.48;4.15;;;;;;;10.51;100.00;100804.56;5120791;27;20110;-35
2023/11/20 00:10:55;;;;;;;17.63;4.50;;;;;;;10.56;100.00;100815.50;5116826;28;20061;-35
2023/11/20 00:13:20;;;;;;;16.73;4.40;;;;;;;10.55;100.00;100813.88;5116919;27;20028;-35
2023/11/20 00:15:46;;;;;;;17.38;4.88;;;;;;;10.58;100.00;100824.22;5117573;28;20030;-35
2023/11/20 00:18:11;;;;;;;14.90;4.77;;;;;;;10.58;100.00;100821.50;5116780;28;20035;-35
2023/11/20 00:20:36;;;;;;;13.43;3.70;;;;;;;10.53;100.00;100805.16;5117331;28;20113;-35
2023/11/20 00:23:02;;;;;;;18.40;4.38;;;;;;;10.58;100.00;100813.38;5116638;28;20024;-35
2023/11/20 00:25:27;;;;;;;13.20;3.77;;;;;;;10.61;100.00;100808.59;5116722;28;20051;-35
2023/11/20 00:27:52;;;;;;;11.83;4.37;;;;;;;10.65;100.00;100818.72;5116826;28;20023;-35
2023/11/20 00:30:18;;;;;;;16.90;4.10;;;;;;;10.60;100.00;100804.25;5116502;28;20034;-35
2023/11/20 00:32:43;;;;;;;16.07;3.67;;;;;;;10.68;100.00;100815.53;5116719;28;20273;-35
2023/11/20 00:35:10;;;;;;;15.02;3.53;;;;;;;10.69;100.00;100810.97;5116185;28;20565;-35
2023/11/20 00:37:36;;;;;;;15.13;3.95;;;;;;;10.68;100.00;100812.00;5116309;28;20379;-35
2023/11/20 00:40:01;;;;;;;13.67;3.20;;;;;;;10.71;100.00;100815.06;5116384;28;20042;-35
2023/11/20 00:42:26;;;;;;;16.07;3.93;;;;;;;10.67;100.00;100813.06;5116293;28;20034;-35
2023/11/20 00:44:52;;;;;;;14.40;3.63;;;;;;;10.70;100.00;100807.19;5116213;28;20313;-35
2023/11/20 00:47:17;;;;;;;16.00;3.57;;;;;;;10.69;100.00;100805.56;5116304;28;20410;-35
2023/11/20 00:49:42;;;;;;;14.77;3.10;;;;;;;10.78;100.00;100825.78;5116139;28;20616;-35
2023/11/20 00:52:09;;;;;;;11.53;3.30;;;;;;;10.78;100.00;100823.94;5116210;28;20024;-35
2023/11/20 00:54:35;;;;;;;17.67;3.63;;;;;;;10.73;100.00;100826.47;5115714;28;20020;-35
2023/11/20 00:57:00;;;;;;;15.63;3.17;;;;;;;10.72;100.00;100818.59;5116342;28;20047;-35
2023/11/20 00:59:26;;;;;;;15.77;4.07;;;;;;;10.75;100.00;100820.84;5116464;28;20036;-35
2023/11/20 01:01:52;;;;;;;10.88;2.92;;;;;;;10.82;100.00;100826.97;5116448;28;20039;-35
2023/11/20 01:04:17;;;;;;;13.80;3.53;;;;;;;10.80;100.00;100834.50;5116087;28;20079;-35
2023/11/20 01:06:43;;;;;;;16.52;4.03;;;;;;;10.86;100.00;100846.28;5115793;28;20028;-35
2023/11/20 01:09:08;;;;;;;13.77;3.10;;;;;;;10.86;100.00;100846.28;5115468;28;20031;-35
2023/11/20 01:11:34;;;;;;;11.88;3.28;;;;;;;10.77;100.00;100834.94;5115989;28;20024;-35
2023/11/20 01:14:01;;;;;;;14.05;3.47;;;;;;;10.83;100.00;100842.13;5115688;28;20097;-35
2023/11/20 01:16:27;;;;;;;15.02;3.45;;;;;;;10.83;100.00;100845.69;5115853;28;20456;-35
2023/11/20 01:18:53;;;;;;;16.48;3.42;;;;;;;10.85;100.00;100855.44;5115625;28;20032;-35
2023/11/20 01:21:19;;;;;;;11.45;3.40;;;;;;;10.83;100.00;100853.81;5115035;28;20055;-35
2023/11/20 01:23:45;;;;;;;12.85;3.00;;;;;;;10.84;100.00;100854.63;5115532;28;20035;-35
2023/11/20 01:26:10;;;;;;;10.73;2.87;;;;;;;10.83;100.00;100855.66;5115579;28;20475;-35
2023/11/20 01:28:35;;;;;;;17.83;3.60;;;;;;;10.85;100.00;100850.84;5115061;28;20140;-35
2023/11/20 01:31:01;;;;;;;14.07;4.05;;;;;;;10.77;100.00;100843.06;5115910;27;20258;-35
2023/11/20 01:33:27;;;;;;;15.73;3.28;;;;;;;10.84;100.00;100860.03;5115823;28;20036;-35
2023/11/20 01:35:52;;;;;;;16.08;3.95;;;;;;;10.86;100.00;100860.63;5115736;28;20046;-35
2023/11/20 01:38:17;;;;;;;19.67;4.10;;;;;;;10.87;100.00;100861.44;5114996;28;20019;-35
2023/11/20 01:40:44;;;;;;;15.47;3.70;;;;;;;10.85;100.00;100861.69;5115515;28;20310;-35
2023/11/20 01:43:10;;;;;;;15.02;3.60;;;;;;;10.86;100.00;100874.13;5115329;28;20030;-35
2023/11/20 01:45:36;;;;;;;18.58;4.20;;;;;;;10.83;100.00;100874.59;5115640;28;20023;-35
2023/11/20 01:48:01;;;;;;;16.30;4.10;;;;;;;10.88;100.00;100866.59;5114976;28;20089;-35
2023/11/20 01:50:30;;;;;;;15.03;4.27;;;;;;;10.86;100.00;100873.31;5115017;28;20024;-35
2023/11/20 01:52:56;;;;;;;16.98;4.95;;;;;;;10.86;100.00;100879.56;5114532;27;20776;-35
2023/11/20 01:55:22;;;;;;;12.82;3.80;;;;;;;10.85;100.00;100872.50;5115180;28;20031;-35
2023/11/20 01:57:49;;;;;;;13.52;4.03;;;;;;;10.62;100.00;100845.38;5115614;28;20082;-35
2023/11/20 02:00:16;;;;;;;18.85;3.97;;;;;;;10.80;100.00;100870.47;5115351;28;20392;-35
2023/11/20 02:02:42;;;;;;;14.30;4.05;;;;;;;10.82;100.00;100878.34;5114695;28;20432;-35
2023/11/20 02:05:09;;;;;;;15.07;3.70;;;;;;;10.81;100.00;100879.41;5114422;28;20066;-35
2023/11/20 02:07:35;;;;;;;19.30;4.60;;;;;;;10.80;100.00;100880.47;5115168;28;20029;-35
2023/11/20 02:10:04;;;;;;;14.02;3.90;;;;;;;10.77;100.00;100879.06;5114688;28;20037;-35
2023/11/20 02:12:30;;;;;;;14.82;4.18;;;;;;;10.75;100.00;100866.84;5114871;28;20027;-35
2023/11/20 02:14:56;;;;;;;13.18;3.50;;;;;;;10.72;100.00;100864.56;5114810;28;20026;-35
2023/11/20 02:17:21;;;;;;;17.20;4.80;;;;;;;10.73;100.00;100863.50;5114631;28;20464;-35
2023/11/20 02:19:47;;;;;;;15.50;3.45;;;;;;;10.65;100.00;100855.75;5114451;28;20030;-35
2023/11/20 02:22:13;;;;;;;15.93;4.22;;;;;;;10.64;100.00;100862.19;5114730;28;20043;-35
2023/11/20 02:24:39;;;;;;;12.75;3.60;;;;;;;10.67;100.00;100872.56;5114100;28;20088;-35
2023/11/20 02:27:25;;;;;;;13.02;3.53;;;;;;;10.66;100.00;100868.22;5114128;28;20077;-35
2023/11/20 02:29:53;;;;;;;15.63;3.97;;;;;;;10.65;100.00;100861.16;5114308;28;20026;-35
2023/11/20 02:32:22;;;;;;;16.33;3.92;;;;;;;10.62;100.00;100867.03;5114290;28;20020;-35
2023/11/20 02:34:51;;;;;;;16.20;4.05;;;;;;;10.60;100.00;100861.03;5114184;28;20532;-35
2023/11/20 02:37:16;;;;;;;15.75;4.68;;;;;;;10.57;100.00;100860.41;5114084;28;20066;-35
2023/11/20 02:39:42;;;;;;;10.52;3.15;;;;;;;10.53;100.00;100859.22;5114435;28;20066;-35
2023/11/20 02:42:08;;;;;;;14.70;4.15;;;;;;;10.47;100.00;100849.34;5114402;28;20126;-35
2023/11/20 02:44:37;;;;;;;16.77;3.33;;;;;;;10.50;100.00;100854.28;5114191;28;20519;-35
2023/11/20 02:47:06;;;;;;;17.25;5.13;;;;;;;10.48;100.00;100853.69;5114070;28;20382;-35
2023/11/20 02:49:35;;;;;;;12.95;3.63;;;;;;;10.39;100.00;100840.72;5113987;28;20046;-35
2023/11/20 02:52:05;;;;;;;19.17;3.40;;;;;;;10.44;100.00;100855.22;5114334;28;20065;-35
2023/11/20 02:54:30;;;;;;;16.92;3.97;;;;;;;10.43;100.00;100845.44;5114009;28;20486;-35
2023/11/20 02:56:56;;;;;;;16.60;4.32;;;;;;;10.42;100.00;100846.50;5114158;28;20079;-35
2023/11/20 02:59:22;;;;;;;13.82;3.35;;;;;;;10.39;100.00;100848.84;5114017;28;20069;-35
2023/11/20 03:01:48;;;;;;;18.58;3.92;;;;;;;10.39;100.00;100844.25;5114821;28;20086;-35
2023/11/20 03:04:18;;;;;;;17.13;3.90;;;;;;;10.36;100.00;100852.00;5113581;28;20486;-35
2023/11/20 03:06:44;;;;;;;15.27;3.58;;;;;;;10.35;100.00;100853.91;5114729;28;20037;-35
2023/11/20 03:09:09;;;;;;;15.15;3.88;;;;;;;10.35;100.00;100850.38;5112928;28;20020;-35
2023/11/20 03:11:35;;;;;;;17.80;4.47;;;;;;;10.34;100.00;100864.91;5114043;28;20050;-35
2023/11/20 03:14:00;;;;;;;16.70;3.17;;;;;;;10.32;100.00;100857.03;5114182;28;20073;-35
2023/11/20 03:16:26;;;;;;;15.15;3.35;;;;;;;10.31;100.00;100863.50;5114572;28;20364;-35
2023/11/20 03:18:51;;;;;;;16.20;3.60;;;;;;;10.29;100.00;100857.50;5114338;28;20110;-35
2023/11/20 03:21:16;;;;;;;19.83;6.03;;;;;;;10.28;100.00;100851.25;5114592;28;20030;-35
2023/11/20 03:23:42;;;;;;;11.03;3.03;;;;;;;10.27;100.00;100863.13;5114241;28;20270;-35
2023/11/20 03:26:07;;;;;;;14.45;3.20;;;;;;;10.24;100.00;100860.88;5114033;28;20063;-35
2023/11/20 03:28:33;;;;;;;12.55;3.45;;;;;;;10.22;100.00;100862.97;5113629;28;20420;-35
2023/11/20 03:30:59;;;;;;;12.30;3.83;;;;;;;10.00;100.00;100821.25;5113977;28;20376;-35
2023/11/20 03:33:24;;;;;;;16.23;3.73;;;;;;;10.13;100.00;100841.88;5113319;28;20065;-35
2023/11/20 03:35:49;;;;;;;17.83;4.27;;;;;;;10.16;100.00;100857.66;5113204;28;20036;-35
2023/11/20 03:38:15;;;;;;;16.83;3.83;;;;;;;10.05;100.00;100841.16;5113481;28;20028;-35
2023/11/20 03:40:42;;;;;;;17.77;3.70;;;;;;;10.11;100.00;100855.63;5113533;28;20031;-35
2023/11/20 03:43:08;;;;;;;17.27;4.07;;;;;;;10.04;100.00;100855.69;5114568;28;20028;-35
2023/11/20 03:45:33;;;;;;;14.37;3.43;;;;;;;10.12;100.00;100862.69;5118216;28;20032;-35
2023/11/20 03:47:59;;;;;;;13.60;3.22;;;;;;;10.11;100.00;100866.44;5117337;28;20114;-35
2023/11/20 03:50:24;;;;;;;14.45;3.45;;;;;;;10.10;100.00;100867.47;5117964;28;20034;-35
2023/11/20 03:52:49;;;;;;;14.40;3.50;;;;;;;10.10;100.00;100870.16;5117611;27;20030;-35
2023/11/20 03:55:15;;;;;;;14.10;3.60;;;;;;;10.05;100.00;100870.88;5117001;27;20020;-35
2023/11/20 03:57:41;;;;;;;;;;;;;;;10.11;100.00;100871.03;5117803;28;20052;-35
2023/11/20 04:00:07;;;;;;;16.47;4.33;;;;;;;10.07;100.00;100871.47;5117173;28;19965;-35
2023/11/20 04:02:32;;;;;;;;;;;;;;;10.11;100.00;100877.25;5117445;28;20269;-35
2023/11/20 04:04:58;;;;;;;12.95;3.50;;;;;;;10.09;100.00;100878.50;5117072;28;19911;-35
2023/11/20 04:07:23;;;;;;;12.97;3.33;;;;;;;10.03;100.00;100869.44;5117538;28;20023;-35
2023/11/20 04:09:48;;;;;;;16.03;4.57;;;;;;;10.02;100.00;100863.22;5117290;28;20051;-35
2023/11/20 04:12:14;;;;;;;14.30;3.80;;;;;;;10.09;100.00;100878.50;5117445;28;20023;-35
2023/11/20 04:14:39;;;;;;;19.88;4.32;;;;;;;10.10;100.00;100882.88;5116917;28;20028;-35
2023/11/20 04:17:05;;;;;;;14.83;4.00;;;;;;;10.09;100.00;100873.94;5116691;28;20031;-35
2023/11/20 04:19:30;;;;;;;14.60;3.88;;;;;;;10.10;100.00;100885.56;5117254;28;20265;-35
2023/11/20 04:21:56;;;;;;;15.45;3.53;;;;;;;10.09;100.00;100873.94;5117052;28;20418;-35
2023/11/20 04:24:21;;;;;;;15.00;3.40;;;;;;;10.09;100.00;100873.09;5116443;28;20472;-35
2023/11/20 04:26:46;;;;;;;12.67;3.60;;;;;;;10.11;100.00;100881.84;5116413;28;20300;-35
2023/11/20 04:29:13;;;;;;;14.73;3.30;;;;;;;10.02;100.00;100871.31;5116517;28;20038;-35
2023/11/20 04:31:38;;;;;;;21.83;4.35;;;;;;;10.02;100.00;100870.50;5117062;28;20276;-35
2023/11/20 04:34:05;;;;;;;15.13;3.60;;;;;;;10.06;100.00;100883.34;5116752;28;20448;-35
2023/11/20 04:36:30;;;;;;;;;;;;;;;10.12;100.00;100878.91;5117090;28;20277;-35
2023/11/20 04:38:55;;;;;;;10.90;2.80;;;;;;;10.09;100.00;100879.34;5116690;28;20331;-35
2023/11/20 04:41:20;;;;;;;12.10;2.83;;;;;;;10.09;100.00;100875.81;5116943;28;20322;-35
2023/11/20 04:43:46;;;;;;;11.53;3.27;;;;;;;10.07;100.00;100876.88;5117106;28;20042;-35
2023/11/20 04:46:12;;;;;;;13.63;3.57;;;;;;;10.09;100.00;100873.94;5116848;28;20038;-35
2023/11/20 04:48:38;;;;;;;13.48;3.60;;;;;;;10.08;100.00;100866.88;5114951;28;20281;-35
2023/11/20 04:51:03;;;;;;;15.25;3.10;;;;;;;10.09;100.00;100870.41;5116463;28;20480;-35
2023/11/20 04:53:29;;;;;;;12.88;2.97;;;;;;;10.09;100.00;100862.31;5116591;28;20497;-35
2023/11/20 04:55:54;;;;;;;10.63;3.03;;;;;;;10.08;100.00;100872.28;5115760;28;20028;-35
2023/11/20 04:58:21;;;;;;;12.70;3.55;;;;;;;10.07;100.00;100866.06;5116543;28;20173;-35
2023/11/20 05:00:51;;;;;;;13.50;3.03;;;;;;;10.00;100.00;100859.94;5116017;28;20023;-35
2023/11/20 05:03:17;;;;;;;11.00;3.15;;;;;;;10.00;100.00;100854.53;5115875;28;20026;-35
2023/11/20 05:05:43;;;;;;;11.82;3.00;;;;;;;10.08;100.00;100877.69;5115909;28;20020;-35
2023/11/20 05:08:11;;;;;;;12.32;2.88;;;;;;;10.06;100.00;100869.81;5115837;28;20102;-35
2023/11/20 05:10:36;;;;;;;18.38;3.80;;;;;;;10.06;100.00;100864.41;5116136;28;20398;-35
2023/11/20 05:13:02;;;;;;;13.15;3.38;;;;;;;10.07;100.00;100863.38;5115720;28;20027;-35
2023/11/20 05:15:27;;;;;;;16.02;3.58;;;;;;;10.08;100.00;100866.88;5115491;28;20031;-35
2023/11/20 05:17:52;;;;;;;15.10;3.40;;;;;;;10.03;100.00;100848.66;5116139;28;20024;-35
2023/11/20 05:20:18;;;;;;;10.10;2.92;;;;;;;10.10;100.00;100858.53;5115634;28;20035;-35
2023/11/20 05:22:45;;;;;;;10.27;3.07;;;;;;;10.08;100.00;100864.19;5115529;28;20026;-35
2023/11/20 05:25:11;;;;;;;16.52;3.45;;;;;;;10.09;100.00;100862.31;5115490;28;20031;-35
2023/11/20 05:27:36;;;;;;;15.57;3.28;;;;;;;10.09;100.00;100863.13;5115122;28;20488;-35
2023/11/20 05:30:04;;;;;;;10.80;2.90;;;;;;;9.97;100.00;100849.56;5115676;28;20058;-35
2023/11/20 05:32:29;;;;;;;12.65;3.15;;;;;;;10.10;100.00;100874.75;5115374;28;20028;-35
2023/11/20 05:34:54;;;;;;;13.20;2.77;;;;;;;10.08;100.00;100872.28;5115595;28;20030;-35
2023/11/20 05:37:20;;;;;;;16.70;3.67;;;;;;;10.07;100.00;100876.88;5115822;28;20051;-35
2023/11/20 05:39:46;;;;;;;17.30;4.35;;;;;;;9.90;100.00;100853.38;5113638;28;20024;-35
2023/11/20 05:42:11;;;;;;;15.30;4.00;;;;;;;10.05;100.00;100875.44;5115720;28;20027;-35
2023/11/20 05:44:37;;;;;;;16.10;3.35;;;;;;;9.98;100.00;100867.41;5115380;28;20501;-35
2023/11/20 05:47:02;;;;;;;12.47;3.13;;;;;;;10.06;100.00;100877.94;5115650;28;20371;-35
2023/11/20 05:49:28;;;;;;;18.65;4.53;;;;;;;10.07;100.00;100882.28;5115575;28;20375;-35
2023/11/20 05:51:53;;;;;;;11.80;3.80;;;;;;;9.98;100.00;100866.59;5115316;28;20383;-35
2023/11/20 05:54:19;;;;;;;15.63;4.05;;;;;;;10.03;100.00;100881.06;5114671;28;20028;-35
2023/11/20 05:56:46;;;;;;;14.97;3.30;;;;;;;10.00;100.00;100883.41;5114708;28;20058;-35
2023/11/20 05:59:11;;;;;;;16.77;3.88;;;;;;;9.98;100.00;100885.50;5114588;27;20260;-35
2023/11/20 06:01:40;;;;;;;17.23;3.47;;;;;;;9.96;100.00;100879.53;5114872;28;20379;-35
2023/11/20 06:04:08;;;;;;;17.48;4.25;;;;;;;9.96;100.00;100885.75;5114449;28;20032;-35
2023/11/20 06:06:36;;;;;;;12.93;3.13;;;;;;;9.87;100.00;100868.19;5115015;28;20055;-35
2023/11/20 06:09:04;;;;;;;15.40;3.85;;;;;;;9.93;100.00;100890.75;5114655;28;20475;-35
2023/11/20 06:11:31;;;;;;;18.65;4.00;;;;;;;9.92;100.00;100895.34;5115181;28;20024;-35
2023/11/20 06:13:57;;;;;;;20.73;4.20;;;;;;;9.93;100.00;100894.28;5115332;28;20030;-35
2023/11/20 06:16:23;;;;;;;11.32;3.42;;;;;;;9.92;100.00;100889.13;5114709;28;20023;-35
2023/11/20 06:18:48;;;;;;;16.27;4.18;;;;;;;9.92;100.00;100892.66;5114529;27;20352;-35
2023/11/20 06:21:14;;;;;;;14.50;3.65;;;;;;;9.91;100.00;100896.41;5114458;28;20066;-35
2023/11/20 06:23:39;;;;;;;16.83;3.47;;;;;;;9.90;100.00;100892.03;5114189;28;20035;-35
2023/11/20 06:26:04;;;;;;;11.50;3.10;;;;;;;9.91;100.00;100904.50;5114856;28;20751;-35
2023/11/20 06:28:30;;;;;;;14.75;3.60;;;;;;;9.89;100.00;100887.69;5114053;28;20031;-35
2023/11/20 06:30:56;;;;;;;18.10;4.07;;;;;;;9.94;100.00;100901.34;5114868;28;20031;-35
2023/11/20 06:33:21;;;;;;;13.23;3.83;;;;;;;9.92;100.00;100900.75;5114260;28;20486;-35
2023/11/20 06:35:46;;;;;;;16.50;4.03;;;;;;;9.93;100.00;100912.38;5114523;28;20307;-35
2023/11/20 06:38:12;;;;;;;11.05;3.67;;;;;;;9.92;100.00;100914.25;5114187;28;20025;-35
2023/11/20 06:40:41;;;;;;;14.55;4.15;;;;;;;9.92;100.00;100910.72;5114154;28;20034;-35
2023/11/20 06:43:06;;;;;;;14.90;3.88;;;;;;;9.82;100.00;100900.44;5114234;28;20023;-35
2023/11/20 06:45:32;;;;;;;16.90;3.97;;;;;;;9.88;100.00;100923.84;5114918;28;20463;-35
2023/11/20 06:47:58;;;;;;;15.15;3.30;;;;;;;9.86;100.00;100914.31;5114074;28;20467;-35
2023/11/20 06:50:24;;;;;;;14.48;4.10;;;;;;;9.82;100.00;100916.66;5114110;28;20031;-35
2023/11/20 06:52:53;;;;;;;17.92;4.20;;;;;;;9.79;100.00;100911.69;5114248;28;20070;-35
2023/11/20 06:55:19;;;;;;;15.52;3.67;;;;;;;9.78;100.00;100918.16;5114590;28;20028;-35
2023/11/20 06:57:44;;;;;;;11.93;3.23;;;;;;;9.73;100.00;100909.88;5113783;28;20051;-35
2023/11/20 07:00:14;;;;;;;14.48;4.15;;;;;;;9.72;100.00;100914.47;5113971;28;20464;-35
2023/11/20 07:02:42;;;;;;;15.75;4.47;;;;;;;9.63;100.00;100905.00;5114183;28;20027;-35
2023/11/20 07:05:16;;;;;;;16.52;4.15;;;;;;;9.66;100.00;100919.91;5113837;28;20043;-35
2023/11/20 07:07:52;;;;;;;15.43;3.63;;;;;;;9.51;100.00;100902.19;5114373;28;20031;-35
2023/11/20 07:10:22;;;;;;;16.92;3.75;;;;;;;9.51;100.00;100904.06;5114396;28;20072;-35
2023/11/20 07:12:57;;;;;;;25.08;5.03;;;;;;;9.53;100.00;100919.00;5113802;28;20034;-35
2023/11/20 07:15:23;;;;;;;16.45;3.28;;;;;;;9.49;100.00;100917.81;5114075;28;20027;-35
2023/11/20 07:17:49;;;;;;;15.93;4.38;;;;;;;9.45;100.00;100911.19;5114616;28;20496;-35
2023/11/20 07:20:16;;;;;;;19.02;4.18;;;;;;;9.43;100.00;100923.28;5118154;28;20027;-35
2023/11/20 07:22:41;;;;;;;17.80;4.43;;;;;;;9.39;100.00;100925.56;5118150;28;20031;-35
2023/11/20 07:25:07;;;;;;;16.23;4.18;;;;;;;9.38;100.00;100934.72;5117849;28;20023;-35
2023/11/20 07:27:34;;;;;;;;;;;;;;;9.41;100.00;100922.66;5118598;28;20092;-35
2023/11/20 07:29:59;;;;;;;17.45;3.85;;;;;;;9.33;100.00;100931.88;5117985;28;19907;-35
2023/11/20 07:32:25;;;;;;;18.73;4.57;;;;;;;9.13;100.00;100906.91;5118001;28;20464;-35
2023/11/20 07:34:50;;;;;;;12.43;3.50;;;;;;;9.34;100.00;100943.47;5117322;28;20265;-35
2023/11/20 07:37:16;;;;;;;21.00;5.00;;;;;;;9.25;100.00;100932.94;5117905;28;20035;-35
2023/11/20 07:39:42;;;;;;;16.95;4.60;;;;;;;9.22;100.00;100928.00;5117260;28;20027;-35
2023/11/20 07:42:08;;;;;;;20.10;4.65;;;;;;;9.32;100.00;100950.94;5118376;28;20077;-35
2023/11/20 07:44:34;;;;;;;15.05;3.83;;;;;;;9.38;100.00;100956.31;5117860;28;20364;-35
2023/11/20 07:47:00;;;;;;;14.38;4.25;;;;;;;9.39;100.00;100947.16;5117718;28;20032;-35
2023/11/20 07:49:27;;;;;;;18.60;4.47;;;;;;;9.38;100.00;100944.69;5115731;28;20039;-35
2023/11/20 07:51:52;;;;;;;19.83;5.00;;;;;;;9.28;100.00;100940.63;5118113;28;20353;-35
2023/11/20 07:54:18;;;;;;;18.10;4.95;;;;;;;9.34;100.00;100949.69;5116951;28;20031;-35
2023/11/20 07:56:43;;;;;;;23.23;4.77;;;;;;;9.27;100.00;100941.66;5117401;28;20059;-35
2023/11/20 07:59:09;;;;;;;17.47;3.67;;;;;;;9.35;100.00;100954.03;5117499;28;20269;-35
2023/11/20 08:01:36;;;;;;;17.25;4.68;;;;;;;9.35;100.00;100954.03;5117647;28;20417;-35
2023/11/20 08:04:03;;;;;;;17.63;4.00;;;;;;;9.33;100.00;100939.13;5116730;28;20032;-35
2023/11/20 08:06:29;;;;;;;14.23;3.65;;;;;;;9.34;100.00;100935.38;5117591;28;20063;-35
2023/11/20 08:08:54;;;;;;;17.30;4.15;;;;;;;9.44;100.00;100952.72;5116968;28;20439;-35
2023/11/20 08:11:20;;;;;;;15.87;4.57;;;;;;;9.45;100.00;100950.84;5116630;28;20031;-35
2023/11/20 08:13:46;;;;;;;11.23;2.97;;;;;;;9.44;100.00;100946.50;5117409;28;20114;-35
2023/11/20 08:16:11;;;;;;;;;;;;;;;9.49;100.00;100946.66;5117462;28;20385;-35
2023/11/20 08:18:37;;;;;;;13.80;2.92;;;;;;;9.44;100.00;100949.22;5117263;28;19956;-35
2023/11/20 08:21:03;;;;;;;16.10;3.90;;;;;;;9.42;100.00;100954.84;5117128;28;20023;-35
2023/11/20 08:23:28;;;;;;;21.33;4.05;;;;;;;9.45;100.00;100954.38;5117186;28;20027;-35
2023/11/20 08:25:54;;;;;;;12.93;3.37;;;;;;;9.45;100.00;100951.69;5116982;28;20031;-35
2023/11/20 08:28:19;;;;;;;14.60;3.30;;;;;;;9.40;100.00;100951.50;5116055;28;20027;-35
2023/11/20 08:30:45;;;;;;;19.73;4.25;;;;;;;9.45;100.00;100956.25;5116548;28;20030;-35
2023/11/20 08:33:10;;;;;;;15.73;3.70;;;;;;;9.47;100.00;100962.28;5116505;27;20048;-35
2023/11/20 08:35:36;;;;;;;14.23;3.53;;;;;;;9.44;100.00;100951.91;5116749;28;20245;-35
2023/11/20 08:38:01;;;;;;;15.10;3.97;;;;;;;9.48;100.00;100953.94;5116375;27;20027;-35
2023/11/20 08:40:26;;;;;;;19.50;4.53;;;;;;;9.51;100.00;100948.09;5116693;28;20261;-35
2023/11/20 08:42:52;;;;;;;18.52;4.00;;;;;;;9.59;100.00;100949.69;5115992;27;20070;-35
2023/11/20 08:45:18;;;;;;;18.98;4.43;;;;;;;9.68;100.00;100947.53;5116578;28;20096;-35
2023/11/20 08:47:43;;;;;;;;;;;;;;;9.76;100.00;100945.38;5116424;28;20027;-35
2023/11/20 08:50:10;;;;;;;14.60;3.87;;;;;;;9.76;100.00;100944.53;5116776;28;20012;-35
2023/11/20 08:52:35;;;;;;;;;;;;;;;9.88;100.00;100947.34;5116562;28;20741;-35
2023/11/20 08:55:00;;;;;;;14.30;3.90;;;;;;;9.86;100.00;100947.56;5115833;28;20014;-35
2023/11/20 08:57:26;;;;;;;11.80;4.20;;;;;;;9.89;100.00;100948.97;5116883;28;20487;-35
2023/11/20 08:59:51;;;;;;;16.30;5.30;;;;;;;9.89;100.00;100944.41;5116141;28;20246;-35
2023/11/20 09:02:16;;;;;;;16.50;4.73;;;;;;;9.93;100.00;100933.97;5116085;28;20031;-35
2023/11/20 09:04:42;;;;;;;18.77;4.73;;;;;;;9.90;100.00;100921.75;5116265;27;20034;-35
2023/11/20 09:07:08;;;;;;;17.27;5.30;;;;;;;9.98;100.00;100921.44;5115961;28;20027;-35
2023/11/20 09:09:35;;;;;;;15.50;3.85;;;;;;;10.10;100.00;100931.50;5115794;28;20031;-35
2023/11/20 09:12:01;;;;;;;15.15;4.07;;;;;;;10.15;100.00;100921.69;5116325;28;20035;-35
2023/11/20 09:14:28;;;;;;;22.58;5.57;;;;;;;10.20;100.00;100926.38;5116297;28;20024;-35
2023/11/20 09:16:53;;;;;;;14.23;4.22;;;;;;;10.21;100.00;100930.75;5116445;28;20078;-35
2023/11/20 09:19:19;;;;;;;17.10;4.15;;;;;;;10.12;100.00;100916.72;5115867;28;20032;-35
2023/11/20 09:21:44;;;;;;;15.13;3.80;;;;;;;10.21;100.00;100928.88;5116156;28;20028;-35
2023/11/20 09:24:10;;;;;;;13.73;4.47;;;;;;;10.20;100.00;100926.38;5115513;28;20030;-35
2023/11/20 09:26:36;;;;;;;14.20;4.13;;;;;;;10.16;100.00;100923.34;5115754;28;20253;-35
2023/11/20 09:29:02;;;;;;;15.43;4.47;;;;;;;10.15;100.00;100927.09;5115367;28;20122;-35
2023/11/20 09:31:28;;;;;;;17.67;6.18;;;;;;;10.16;100.00;100930.63;5115114;28;20105;-35
2023/11/20 09:33:53;;;;;;;12.75;4.85;;;;;;;10.21;100.00;100938.88;5115054;28;20034;-35
2023/11/20 09:36:19;;;;;;;16.20;4.50;;;;;;;10.20;100.00;100935.34;5115275;28;20086;-35
2023/11/20 09:38:45;;;;;;;13.57;4.55;;;;;;;10.21;100.00;100936.16;5115166;28;20034;-35
2023/11/20 09:41:11;;;;;;;15.93;5.45;;;;;;;10.21;100.00;100928.88;5114311;28;20466;-36
2023/11/20 09:43:37;;;;;;;;;;;;;;;10.28;100.00;100931.53;5115507;28;20104;-35
2023/11/20 09:46:10;;;;;;;11.05;4.13;;;;;;;10.25;100.00;100940.09;5114957;28;20355;-35
2023/11/20 09:48:38;;;;;;;15.68;4.60;;;;;;;10.25;100.00;100938.22;5114966;28;20032;-35
2023/11/20 09:51:05;;;;;;;19.00;5.78;;;;;;;10.23;100.00;100931.34;5115516;28;20035;-35
2023/11/20 09:53:37;;;;;;;15.85;5.15;;;;;;;10.25;100.00;100932.00;5114630;28;20048;-35
2023/11/20 09:56:03;;;;;;;15.35;5.25;;;;;;;10.26;100.00;100939.03;5115394;27;20074;-35
2023/11/20 09:58:30;;;;;;;;;;;;;;;10.31;100.00;100937.31;5115747;28;20468;-35
2023/11/20 10:01:06;;;;;;;13.55;4.78;;;;;;;10.20;100.00;100920.97;5114811;28;19912;-35
2023/11/20 10:03:35;;;;;;;;;;;;;;;10.30;100.00;100924.03;5115457;28;20032;-35
2023/11/20 10:06:02;;;;;;;11.90;4.53;;;;;;;10.30;100.00;100924.03;5115011;28;19954;-35
2023/11/20 10:08:29;;;;;;;15.60;4.80;;;;;;;10.31;100.00;100920.28;5114420;28;20383;-35
2023/11/20 10:10:58;;;;;;;13.05;4.63;;;;;;;10.32;100.00;100903.00;5114694;28;20028;-35
2023/11/20 10:13:26;;;;;;;13.57;4.32;;;;;;;10.47;100.00;100906.13;5114522;28;20062;-35
2023/11/20 10:15:53;;;;;;;14.32;4.78;;;;;;;10.58;100.00;100907.22;5114771;28;20425;-35
2023/11/20 10:18:18;;;;;;;16.88;5.15;;;;;;;10.65;100.00;100909.84;5114130;28;20031;-35
2023/11/20 10:20:47;;;;;;;10.57;3.80;;;;;;;10.72;100.00;100910.56;5115081;28;20024;-35
2023/11/20 10:23:13;;;;;;;10.85;4.05;;;;;;;10.78;100.00;100899.66;5114101;28;20047;-35
2023/11/20 10:25:42;;;;;;;13.68;3.75;;;;;;;10.82;100.00;100900.00;5114987;28;20462;-35
2023/11/20 10:28:08;;;;;;;10.85;4.13;;;;;;;10.94;100.00;100900.88;5114354;28;20027;-35
2023/11/20 10:30:33;;;;;;;11.50;4.05;;;;;;;10.80;100.00;100881.31;5114349;28;20046;-35
2023/11/20 10:32:59;;;;;;;12.88;3.83;;;;;;;10.93;100.00;100906.50;5114302;27;20028;-35
2023/11/20 10:35:28;;;;;;;10.30;3.63;;;;;;;10.95;100.00;100897.09;5114798;28;20027;-35
2023/11/20 10:37:58;;;;;;;15.10;4.63;;;;;;;10.95;100.00;100893.56;5114181;28;20484;-35
2023/11/20 10:40:25;;;;;;;13.07;4.25;;;;;;;11.00;100.00;100902.63;5114496;28;20455;-35
2023/11/20 10:42:50;;;;;;;13.13;4.20;;;;;;;10.99;100.00;100890.19;5114902;28;20026;-35
2023/11/20 10:45:16;;;;;;;11.75;3.80;;;;;;;11.00;100.00;100881.00;5113873;28;20020;-35
2023/11/20 10:47:43;;;;;;;13.40;4.27;;;;;;;11.19;100.00;100883.63;5114055;28;20110;-35
2023/11/20 10:50:11;;;;;;;13.40;3.90;;;;;;;11.27;100.00;100885.94;5114601;28;20025;-35
2023/11/20 10:52:40;;;;;;;13.63;3.53;;;;;;;11.35;100.00;100869.38;5114710;28;20032;-35
2023/11/20 10:55:13;;;;;;;12.05;4.13;;;;;;;11.39;100.00;100869.72;5113746;28;20382;-35
2023/11/20 10:57:39;;;;;;;12.02;3.97;;;;;;;11.24;100.00;100870.19;5114523;28;20056;-35
2023/11/20 11:00:11;;;;;;;9.10;3.00;;;;;;;11.20;100.00;100880.66;5114016;28;20563;-35
2023/11/20 11:02:44;;;;;;;9.55;3.13;;;;;;;11.11;100.00;100863.13;5114503;28;20403;-35
2023/11/20 11:05:12;;;;;;;10.25;2.75;;;;;;;11.19;100.00;100880.91;5113876;28;20053;-35
2023/11/20 11:07:42;;;;;;;10.52;3.08;;;;;;;11.20;100.00;100879.84;5114468;28;20035;-35
2023/11/20 11:10:14;;;;;;;14.23;3.38;;;;;;;11.27;100.00;100864.28;5114118;28;20137;-36